sensor_id;sensor_type;location;lat;lon;timestamp;temperature;humidity
74368;DHT22;64991;41.090;-8.118;2023-01-10T00:01:36;16.20;80.20
74368;DHT22;64991;41.090;-8.118;2023-01-10T00:06:39;16.20;80.20
74368;DHT22;64991;41.090;-8.118;2023-01-10T00:11:43;16.10;80.00
74368;DHT22;64991;41.090;-8.118;2023-01-10T00:17:05;16.20;80.50
74368;DHT22;64991;41.090;-8.118;2023-01-10T00:22:09;16.20;80.20
74368;DHT22;64991;41.090;-8.118;2023-01-10T00:27:23;16.10;80.10
74368;DHT22;64991;41.090;-8.118;2023-01-10T00:32:28;16.10;80.20
74368;DHT22;64991;41.090;-8.118;2023-01-10T00:37:32;16.20;80.00
74368;DHT22;64991;41.090;-8.118;2023-01-10T00:42:35;16.20;80.20
74368;DHT22;64991;41.090;-8.118;2023-01-10T00:47:57;16.10;80.00
74368;DHT22;64991;41.090;-8.118;2023-01-10T00:53:01;16.20;80.20
74368;DHT22;64991;41.090;-8.118;2023-01-10T00:58:04;16.10;80.10
74368;DHT22;64991;41.090;-8.118;2023-01-10T01:03:10;16.10;80.10
74368;DHT22;64991;41.090;-8.118;2023-01-10T01:08:14;16.00;80.00
74368;DHT22;64991;41.090;-8.118;2023-01-10T01:13:19;16.20;80.00
74368;DHT22;64991;41.090;-8.118;2023-01-10T01:18:25;16.10;79.90
74368;DHT22;64991;41.090;-8.118;2023-01-10T01:23:29;16.10;79.90
74368;DHT22;64991;41.090;-8.118;2023-01-10T01:28:32;16.20;79.90
74368;DHT22;64991;41.090;-8.118;2023-01-10T01:33:37;16.10;80.10
74368;DHT22;64991;41.090;-8.118;2023-01-10T01:38:41;16.10;79.90
74368;DHT22;64991;41.090;-8.118;2023-01-10T01:43:57;16.10;80.00
74368;DHT22;64991;41.090;-8.118;2023-01-10T01:49:03;16.20;79.70
74368;DHT22;64991;41.090;-8.118;2023-01-10T01:54:08;16.10;79.80
74368;DHT22;64991;41.090;-8.118;2023-01-10T01:59:13;16.10;79.90
74368;DHT22;64991;41.090;-8.118;2023-01-10T02:04:21;16.10;80.00
74368;DHT22;64991;41.090;-8.118;2023-01-10T02:09:27;16.10;80.00
74368;DHT22;64991;41.090;-8.118;2023-01-10T02:14:34;16.10;80.10
74368;DHT22;64991;41.090;-8.118;2023-01-10T02:19:41;16.10;80.10
74368;DHT22;64991;41.090;-8.118;2023-01-10T02:30:37;16.10;79.90
74368;DHT22;64991;41.090;-8.118;2023-01-10T02:41:18;16.00;80.00
74368;DHT22;64991;41.090;-8.118;2023-01-10T02:46:26;16.10;80.00
74368;DHT22;64991;41.090;-8.118;2023-01-10T02:51:32;16.10;79.70
74368;DHT22;64991;41.090;-8.118;2023-01-10T02:56:44;16.10;79.90
74368;DHT22;64991;41.090;-8.118;2023-01-10T03:02:04;16.10;79.90
74368;DHT22;64991;41.090;-8.118;2023-01-10T03:07:15;16.10;80.10
74368;DHT22;64991;41.090;-8.118;2023-01-10T03:12:21;16.10;79.90
74368;DHT22;64991;41.090;-8.118;2023-01-10T03:17:27;16.10;79.80
74368;DHT22;64991;41.090;-8.118;2023-01-10T03:22:34;16.10;80.00
74368;DHT22;64991;41.090;-8.118;2023-01-10T03:27:42;16.10;79.70
74368;DHT22;64991;41.090;-8.118;2023-01-10T03:32:49;16.10;79.80
74368;DHT22;64991;41.090;-8.118;2023-01-10T03:37:54;16.10;79.70
74368;DHT22;64991;41.090;-8.118;2023-01-10T03:43:02;16.10;79.80
74368;DHT22;64991;41.090;-8.118;2023-01-10T03:48:29;16.00;79.70
74368;DHT22;64991;41.090;-8.118;2023-01-10T03:53:37;16.00;79.90
74368;DHT22;64991;41.090;-8.118;2023-01-10T03:58:41;16.00;80.00
74368;DHT22;64991;41.090;-8.118;2023-01-10T04:03:44;16.00;79.70
74368;DHT22;64991;41.090;-8.118;2023-01-10T04:08:49;16.00;79.90
74368;DHT22;64991;41.090;-8.118;2023-01-10T04:13:53;16.10;79.70
74368;DHT22;64991;41.090;-8.118;2023-01-10T04:18:56;16.10;79.70
74368;DHT22;64991;41.090;-8.118;2023-01-10T04:24:01;16.10;79.40
74368;DHT22;64991;41.090;-8.118;2023-01-10T04:29:05;16.00;79.70
74368;DHT22;64991;41.090;-8.118;2023-01-10T04:34:08;16.10;79.50
74368;DHT22;64991;41.090;-8.118;2023-01-10T04:39:13;16.10;79.30
74368;DHT22;64991;41.090;-8.118;2023-01-10T04:44:17;16.10;79.60
74368;DHT22;64991;41.090;-8.118;2023-01-10T04:49:20;16.10;79.60
74368;DHT22;64991;41.090;-8.118;2023-01-10T04:54:25;16.00;79.40
74368;DHT22;64991;41.090;-8.118;2023-01-10T04:59:29;16.10;79.20
74368;DHT22;64991;41.090;-8.118;2023-01-10T05:04:32;16.20;79.40
74368;DHT22;64991;41.090;-8.118;2023-01-10T05:09:37;16.10;79.40
74368;DHT22;64991;41.090;-8.118;2023-01-10T05:14:41;16.10;79.30
74368;DHT22;64991;41.090;-8.118;2023-01-10T05:19:44;16.00;79.40
74368;DHT22;64991;41.090;-8.118;2023-01-10T05:24:49;16.00;79.40
74368;DHT22;64991;41.090;-8.118;2023-01-10T05:29:55;16.00;79.40
74368;DHT22;64991;41.090;-8.118;2023-01-10T05:34:58;16.00;79.40
74368;DHT22;64991;41.090;-8.118;2023-01-10T05:40:04;16.00;79.20
74368;DHT22;64991;41.090;-8.118;2023-01-10T05:45:08;16.00;79.20
74368;DHT22;64991;41.090;-8.118;2023-01-10T05:50:12;16.00;79.40
74368;DHT22;64991;41.090;-8.118;2023-01-10T05:55:18;16.10;79.20
74368;DHT22;64991;41.090;-8.118;2023-01-10T06:00:23;16.10;79.20
74368;DHT22;64991;41.090;-8.118;2023-01-10T06:05:26;16.00;79.40
74368;DHT22;64991;41.090;-8.118;2023-01-10T06:10:31;16.10;79.20
74368;DHT22;64991;41.090;-8.118;2023-01-10T06:15:35;16.10;79.00
74368;DHT22;64991;41.090;-8.118;2023-01-10T06:20:38;16.10;78.90
74368;DHT22;64991;41.090;-8.118;2023-01-10T06:25:43;16.10;79.30
74368;DHT22;64991;41.090;-8.118;2023-01-10T06:30:47;16.00;78.90
74368;DHT22;64991;41.090;-8.118;2023-01-10T06:35:50;16.10;79.00
74368;DHT22;64991;41.090;-8.118;2023-01-10T06:40:55;16.00;78.90
74368;DHT22;64991;41.090;-8.118;2023-01-10T06:45:59;15.90;79.10
74368;DHT22;64991;41.090;-8.118;2023-01-10T06:51:03;16.10;78.90
74368;DHT22;64991;41.090;-8.118;2023-01-10T06:56:08;16.00;78.90
74368;DHT22;64991;41.090;-8.118;2023-01-10T07:01:12;16.00;78.80
74368;DHT22;64991;41.090;-8.118;2023-01-10T07:06:17;16.10;78.80
74368;DHT22;64991;41.090;-8.118;2023-01-10T07:11:22;16.00;78.90
74368;DHT22;64991;41.090;-8.118;2023-01-10T07:16:25;16.10;78.90
74368;DHT22;64991;41.090;-8.118;2023-01-10T07:21:29;16.00;78.80
74368;DHT22;64991;41.090;-8.118;2023-01-10T07:26:34;16.00;78.80
74368;DHT22;64991;41.090;-8.118;2023-01-10T07:31:39;16.00;78.90
74368;DHT22;64991;41.090;-8.118;2023-01-10T07:36:42;16.00;78.60
74368;DHT22;64991;41.090;-8.118;2023-01-10T07:41:48;16.00;78.90
74368;DHT22;64991;41.090;-8.118;2023-01-10T07:46:51;16.00;79.00
74368;DHT22;64991;41.090;-8.118;2023-01-10T07:51:55;15.90;78.90
74368;DHT22;64991;41.090;-8.118;2023-01-10T07:57:00;16.00;78.80
74368;DHT22;64991;41.090;-8.118;2023-01-10T08:02:03;16.00;78.90
74368;DHT22;64991;41.090;-8.118;2023-01-10T08:07:07;16.00;78.80
74368;DHT22;64991;41.090;-8.118;2023-01-10T08:12:12;15.90;79.00
74368;DHT22;64991;41.090;-8.118;2023-01-10T08:17:15;16.00;78.90
74368;DHT22;64991;41.090;-8.118;2023-01-10T08:22:19;15.90;78.90
74368;DHT22;64991;41.090;-8.118;2023-01-10T08:27:24;16.00;78.60
74368;DHT22;64991;41.090;-8.118;2023-01-10T08:32:28;16.00;78.60
74368;DHT22;64991;41.090;-8.118;2023-01-10T08:37:31;16.00;78.70
74368;DHT22;64991;41.090;-8.118;2023-01-10T08:42:37;15.90;78.70
74368;DHT22;64991;41.090;-8.118;2023-01-10T08:47:40;16.00;78.70
74368;DHT22;64991;41.090;-8.118;2023-01-10T08:52:44;15.90;78.80
74368;DHT22;64991;41.090;-8.118;2023-01-10T08:57:49;15.90;78.80
74368;DHT22;64991;41.090;-8.118;2023-01-10T09:02:52;16.00;78.60
74368;DHT22;64991;41.090;-8.118;2023-01-10T09:07:59;16.00;78.60
74368;DHT22;64991;41.090;-8.118;2023-01-10T09:13:05;16.00;78.50
74368;DHT22;64991;41.090;-8.118;2023-01-10T09:18:11;16.10;78.50
74368;DHT22;64991;41.090;-8.118;2023-01-10T09:23:15;15.90;78.60
74368;DHT22;64991;41.090;-8.118;2023-01-10T09:28:22;16.00;78.60
74368;DHT22;64991;41.090;-8.118;2023-01-10T09:33:26;16.00;78.60
74368;DHT22;64991;41.090;-8.118;2023-01-10T09:38:46;16.00;78.50
74368;DHT22;64991;41.090;-8.118;2023-01-10T09:43:53;16.00;78.50
74368;DHT22;64991;41.090;-8.118;2023-01-10T09:49:05;16.00;78.40
74368;DHT22;64991;41.090;-8.118;2023-01-10T09:54:16;16.00;78.50
74368;DHT22;64991;41.090;-8.118;2023-01-10T09:59:28;16.00;78.70
74368;DHT22;64991;41.090;-8.118;2023-01-10T10:04:34;16.10;78.70
74368;DHT22;64991;41.090;-8.118;2023-01-10T10:09:39;16.00;78.40
74368;DHT22;64991;41.090;-8.118;2023-01-10T10:14:46;16.10;78.60
74368;DHT22;64991;41.090;-8.118;2023-01-10T10:20:02;16.10;78.30
74368;DHT22;64991;41.090;-8.118;2023-01-10T10:25:16;16.00;78.60
74368;DHT22;64991;41.090;-8.118;2023-01-10T10:30:40;16.10;78.50
74368;DHT22;64991;41.090;-8.118;2023-01-10T10:35:49;16.00;78.60
74368;DHT22;64991;41.090;-8.118;2023-01-10T10:40:55;16.00;78.30
74368;DHT22;64991;41.090;-8.118;2023-01-10T10:46:02;16.00;78.60
74368;DHT22;64991;41.090;-8.118;2023-01-10T10:51:10;16.00;78.50
74368;DHT22;64991;41.090;-8.118;2023-01-10T10:56:16;16.10;78.50
74368;DHT22;64991;41.090;-8.118;2023-01-10T11:01:23;16.00;78.60
74368;DHT22;64991;41.090;-8.118;2023-01-10T11:06:28;16.10;78.60
74368;DHT22;64991;41.090;-8.118;2023-01-10T11:11:36;16.00;78.70
74368;DHT22;64991;41.090;-8.118;2023-01-10T11:16:42;16.10;78.70
74368;DHT22;64991;41.090;-8.118;2023-01-10T11:21:47;16.10;78.70
74368;DHT22;64991;41.090;-8.118;2023-01-10T11:26:52;16.00;78.50
74368;DHT22;64991;41.090;-8.118;2023-01-10T11:31:58;16.00;78.80
74368;DHT22;64991;41.090;-8.118;2023-01-10T11:37:17;16.00;78.70
74368;DHT22;64991;41.090;-8.118;2023-01-10T11:42:25;16.10;78.80
74368;DHT22;64991;41.090;-8.118;2023-01-10T11:47:32;16.00;78.70
74368;DHT22;64991;41.090;-8.118;2023-01-10T11:52:46;16.10;78.70
74368;DHT22;64991;41.090;-8.118;2023-01-10T11:57:53;16.00;79.10
74368;DHT22;64991;41.090;-8.118;2023-01-10T12:03:00;16.00;79.20
74368;DHT22;64991;41.090;-8.118;2023-01-10T12:08:04;16.00;78.90
74368;DHT22;64991;41.090;-8.118;2023-01-10T12:13:12;16.10;79.00
74368;DHT22;64991;41.090;-8.118;2023-01-10T12:18:18;16.00;79.10
74368;DHT22;64991;41.090;-8.118;2023-01-10T12:23:21;16.10;79.00
74368;DHT22;64991;41.090;-8.118;2023-01-10T12:28:29;15.90;79.00
74368;DHT22;64991;41.090;-8.118;2023-01-10T12:33:34;16.00;78.90
74368;DHT22;64991;41.090;-8.118;2023-01-10T12:38:41;16.00;79.10
74368;DHT22;64991;41.090;-8.118;2023-01-10T12:44:10;16.00;79.10
74368;DHT22;64991;41.090;-8.118;2023-01-10T12:49:21;16.00;79.50
74368;DHT22;64991;41.090;-8.118;2023-01-10T12:54:27;16.00;79.40
74368;DHT22;64991;41.090;-8.118;2023-01-10T12:59:33;16.00;79.20
74368;DHT22;64991;41.090;-8.118;2023-01-10T13:04:40;16.00;79.20
74368;DHT22;64991;41.090;-8.118;2023-01-10T13:09:45;16.10;79.10
74368;DHT22;64991;41.090;-8.118;2023-01-10T13:14:50;16.10;79.30
74368;DHT22;64991;41.090;-8.118;2023-01-10T13:20:23;16.10;79.20
74368;DHT22;64991;41.090;-8.118;2023-01-10T13:25:30;16.10;79.20
74368;DHT22;64991;41.090;-8.118;2023-01-10T13:30:37;16.20;79.30
74368;DHT22;64991;41.090;-8.118;2023-01-10T13:35:43;16.10;79.20
74368;DHT22;64991;41.090;-8.118;2023-01-10T13:41:00;16.10;79.20
74368;DHT22;64991;41.090;-8.118;2023-01-10T13:57:49;16.10;79.40
74368;DHT22;64991;41.090;-8.118;2023-01-10T14:02:54;16.10;79.50
74368;DHT22;64991;41.090;-8.118;2023-01-10T14:07:57;16.20;79.50
74368;DHT22;64991;41.090;-8.118;2023-01-10T14:13:03;16.00;79.60
74368;DHT22;64991;41.090;-8.118;2023-01-10T14:18:15;16.10;79.40
74368;DHT22;64991;41.090;-8.118;2023-01-10T14:23:21;16.10;79.50
74368;DHT22;64991;41.090;-8.118;2023-01-10T14:28:32;16.00;79.50
74368;DHT22;64991;41.090;-8.118;2023-01-10T14:33:36;16.10;79.50
74368;DHT22;64991;41.090;-8.118;2023-01-10T14:38:39;16.10;79.70
74368;DHT22;64991;41.090;-8.118;2023-01-10T14:43:48;16.10;79.60
74368;DHT22;64991;41.090;-8.118;2023-01-10T14:48:56;16.10;79.50
74368;DHT22;64991;41.090;-8.118;2023-01-10T14:54:02;16.10;79.60
74368;DHT22;64991;41.090;-8.118;2023-01-10T14:59:17;16.10;79.70
74368;DHT22;64991;41.090;-8.118;2023-01-10T15:04:25;16.00;79.60
74368;DHT22;64991;41.090;-8.118;2023-01-10T15:09:30;16.10;79.30
74368;DHT22;64991;41.090;-8.118;2023-01-10T15:14:35;16.00;79.80
74368;DHT22;64991;41.090;-8.118;2023-01-10T15:19:39;16.10;79.70
74368;DHT22;64991;41.090;-8.118;2023-01-10T15:24:42;16.10;79.60
74368;DHT22;64991;41.090;-8.118;2023-01-10T15:29:47;16.10;79.80
74368;DHT22;64991;41.090;-8.118;2023-01-10T15:34:51;16.00;79.80
74368;DHT22;64991;41.090;-8.118;2023-01-10T15:39:56;16.10;79.80
74368;DHT22;64991;41.090;-8.118;2023-01-10T15:50:32;16.10;80.00
74368;DHT22;64991;41.090;-8.118;2023-01-10T15:55:40;16.10;80.10
74368;DHT22;64991;41.090;-8.118;2023-01-10T16:00:46;16.10;79.80
74368;DHT22;64991;41.090;-8.118;2023-01-10T16:05:53;16.10;80.00
74368;DHT22;64991;41.090;-8.118;2023-01-10T16:10:59;16.00;79.90
74368;DHT22;64991;41.090;-8.118;2023-01-10T16:16:06;16.10;80.10
74368;DHT22;64991;41.090;-8.118;2023-01-10T16:21:17;16.00;80.10
74368;DHT22;64991;41.090;-8.118;2023-01-10T16:26:22;16.00;80.10
74368;DHT22;64991;41.090;-8.118;2023-01-10T16:31:26;16.10;79.80
74368;DHT22;64991;41.090;-8.118;2023-01-10T16:36:31;16.00;80.00
74368;DHT22;64991;41.090;-8.118;2023-01-10T16:41:34;16.10;80.00
74368;DHT22;64991;41.090;-8.118;2023-01-10T16:46:55;16.10;80.10
74368;DHT22;64991;41.090;-8.118;2023-01-10T16:52:00;16.00;80.20
74368;DHT22;64991;41.090;-8.118;2023-01-10T16:57:04;16.00;80.00
74368;DHT22;64991;41.090;-8.118;2023-01-10T17:02:12;16.00;80.10
74368;DHT22;64991;41.090;-8.118;2023-01-10T17:07:20;16.00;80.20
74368;DHT22;64991;41.090;-8.118;2023-01-10T17:12:23;16.00;80.20
74368;DHT22;64991;41.090;-8.118;2023-01-10T17:17:32;16.00;80.20
74368;DHT22;64991;41.090;-8.118;2023-01-10T17:22:37;16.00;80.30
74368;DHT22;64991;41.090;-8.118;2023-01-10T17:27:41;16.00;80.50
74368;DHT22;64991;41.090;-8.118;2023-01-10T17:32:44;16.00;80.30
74368;DHT22;64991;41.090;-8.118;2023-01-10T17:37:49;16.00;80.30
74368;DHT22;64991;41.090;-8.118;2023-01-10T17:42:53;16.00;80.50
74368;DHT22;64991;41.090;-8.118;2023-01-10T17:47:56;16.00;80.30
74368;DHT22;64991;41.090;-8.118;2023-01-10T17:53:01;16.00;80.60
74368;DHT22;64991;41.090;-8.118;2023-01-10T17:58:05;16.00;80.50
74368;DHT22;64991;41.090;-8.118;2023-01-10T18:03:08;16.00;80.30
74368;DHT22;64991;41.090;-8.118;2023-01-10T18:08:13;15.90;80.30
74368;DHT22;64991;41.090;-8.118;2023-01-10T18:13:17;15.90;80.60
74368;DHT22;64991;41.090;-8.118;2023-01-10T18:18:22;16.00;80.60
74368;DHT22;64991;41.090;-8.118;2023-01-10T18:23:29;16.00;80.40
74368;DHT22;64991;41.090;-8.118;2023-01-10T18:28:35;16.00;80.50
74368;DHT22;64991;41.090;-8.118;2023-01-10T18:33:43;16.00;80.60
74368;DHT22;64991;41.090;-8.118;2023-01-10T18:38:48;16.00;80.70
74368;DHT22;64991;41.090;-8.118;2023-01-10T18:43:52;16.00;80.60
74368;DHT22;64991;41.090;-8.118;2023-01-10T18:48:55;16.00;80.80
74368;DHT22;64991;41.090;-8.118;2023-01-10T18:54:00;16.00;80.50
74368;DHT22;64991;41.090;-8.118;2023-01-10T18:59:04;16.00;80.60
74368;DHT22;64991;41.090;-8.118;2023-01-10T19:04:07;16.10;80.60
74368;DHT22;64991;41.090;-8.118;2023-01-10T19:09:13;16.00;80.80
74368;DHT22;64991;41.090;-8.118;2023-01-10T19:14:16;15.90;80.90
74368;DHT22;64991;41.090;-8.118;2023-01-10T19:19:20;16.00;80.80
74368;DHT22;64991;41.090;-8.118;2023-01-10T19:24:26;15.90;80.90
74368;DHT22;64991;41.090;-8.118;2023-01-10T19:29:32;16.00;80.80
74368;DHT22;64991;41.090;-8.118;2023-01-10T19:34:37;16.00;81.00
74368;DHT22;64991;41.090;-8.118;2023-01-10T19:39:42;15.90;80.80
74368;DHT22;64991;41.090;-8.118;2023-01-10T19:44:45;16.00;80.80
74368;DHT22;64991;41.090;-8.118;2023-01-10T19:49:49;15.90;81.00
74368;DHT22;64991;41.090;-8.118;2023-01-10T19:54:54;15.80;81.10
74368;DHT22;64991;41.090;-8.118;2023-01-10T19:59:57;15.90;81.00
74368;DHT22;64991;41.090;-8.118;2023-01-10T20:05:01;15.90;80.90
74368;DHT22;64991;41.090;-8.118;2023-01-10T20:10:06;16.00;80.90
74368;DHT22;64991;41.090;-8.118;2023-01-10T20:15:11;15.80;81.10
74368;DHT22;64991;41.090;-8.118;2023-01-10T20:20:15;16.00;81.10
74368;DHT22;64991;41.090;-8.118;2023-01-10T20:25:21;15.90;80.90
74368;DHT22;64991;41.090;-8.118;2023-01-10T20:30:25;15.90;81.00
74368;DHT22;64991;41.090;-8.118;2023-01-10T20:35:28;15.90;81.30
74368;DHT22;64991;41.090;-8.118;2023-01-10T20:40:33;15.90;81.00
74368;DHT22;64991;41.090;-8.118;2023-01-10T20:45:37;15.80;81.00
74368;DHT22;64991;41.090;-8.118;2023-01-10T20:50:41;15.90;81.10
74368;DHT22;64991;41.090;-8.118;2023-01-10T20:55:46;15.90;81.20
74368;DHT22;64991;41.090;-8.118;2023-01-10T21:01:00;15.90;81.20
74368;DHT22;64991;41.090;-8.118;2023-01-10T21:06:04;15.90;81.10
74368;DHT22;64991;41.090;-8.118;2023-01-10T21:11:11;15.80;81.20
74368;DHT22;64991;41.090;-8.118;2023-01-10T21:16:16;15.70;81.40
74368;DHT22;64991;41.090;-8.118;2023-01-10T21:21:23;15.80;81.30
74368;DHT22;64991;41.090;-8.118;2023-01-10T21:26:28;15.90;81.30
74368;DHT22;64991;41.090;-8.118;2023-01-10T21:31:31;15.90;81.40
74368;DHT22;64991;41.090;-8.118;2023-01-10T21:36:35;15.90;81.20
74368;DHT22;64991;41.090;-8.118;2023-01-10T21:41:40;15.90;81.30
74368;DHT22;64991;41.090;-8.118;2023-01-10T21:47:01;16.00;81.20
74368;DHT22;64991;41.090;-8.118;2023-01-10T21:52:05;15.90;81.10
74368;DHT22;64991;41.090;-8.118;2023-01-10T21:57:10;15.80;81.30
74368;DHT22;64991;41.090;-8.118;2023-01-10T22:02:13;15.80;81.30
74368;DHT22;64991;41.090;-8.118;2023-01-10T22:07:17;15.90;81.30
74368;DHT22;64991;41.090;-8.118;2023-01-10T22:12:24;15.80;81.50
74368;DHT22;64991;41.090;-8.118;2023-01-10T22:17:29;15.80;81.70
74368;DHT22;64991;41.090;-8.118;2023-01-10T22:22:32;15.90;81.20
74368;DHT22;64991;41.090;-8.118;2023-01-10T22:27:37;15.80;81.80
74368;DHT22;64991;41.090;-8.118;2023-01-10T22:32:42;15.80;81.50
74368;DHT22;64991;41.090;-8.118;2023-01-10T22:37:45;15.70;81.40
74368;DHT22;64991;41.090;-8.118;2023-01-10T22:42:50;15.80;81.30
74368;DHT22;64991;41.090;-8.118;2023-01-10T22:47:55;15.80;81.60
74368;DHT22;64991;41.090;-8.118;2023-01-10T22:52:58;15.90;81.60
74368;DHT22;64991;41.090;-8.118;2023-01-10T22:58:03;15.80;81.50
74368;DHT22;64991;41.090;-8.118;2023-01-10T23:03:07;15.80;81.60
74368;DHT22;64991;41.090;-8.118;2023-01-10T23:08:10;15.80;81.40
74368;DHT22;64991;41.090;-8.118;2023-01-10T23:13:15;15.80;81.80
74368;DHT22;64991;41.090;-8.118;2023-01-10T23:18:19;15.80;81.60
74368;DHT22;64991;41.090;-8.118;2023-01-10T23:23:23;15.90;81.40
74368;DHT22;64991;41.090;-8.118;2023-01-10T23:28:28;15.80;81.60
74368;DHT22;64991;41.090;-8.118;2023-01-10T23:33:33;15.80;81.60
74368;DHT22;64991;41.090;-8.118;2023-01-10T23:38:37;15.80;81.50
74368;DHT22;64991;41.090;-8.118;2023-01-10T23:43:42;15.80;81.50
74368;DHT22;64991;41.090;-8.118;2023-01-10T23:48:45;15.90;81.50
74368;DHT22;64991;41.090;-8.118;2023-01-10T23:53:49;15.90;82.00
74368;DHT22;64991;41.090;-8.118;2023-01-10T23:58:54;15.80;81.60
